createdAt,value
2023-04-02T00:29:08.852Z,99.7
2023-04-02T00:59:26.852Z,99.90001
2023-04-02T01:29:43.937Z,99.90001
2023-04-02T02:00:01.743Z,99.90001
2023-04-02T02:30:20.047Z,99.90001
2023-04-02T03:00:38.232Z,99.90001
2023-04-02T03:30:55.261Z,99.90001
2023-04-02T04:01:12.896Z,99.90001
2023-04-02T04:31:30.215Z,99.90001
2023-04-02T05:01:48.248Z,99.90001
2023-04-02T05:32:04.999Z,99.90001
2023-04-02T06:02:23.054Z,99.90001
2023-04-02T06:32:40.654Z,98.8
2023-04-02T07:02:58.600Z,97.7
2023-04-02T07:33:14.858Z,99.90001
2023-04-02T08:03:27.788Z,99.90001
2023-04-02T08:33:45.978Z,99.90001
2023-04-02T09:04:05.593Z,97.9
2023-04-02T09:34:22.997Z,99.90001
2023-04-02T10:04:41.618Z,93.2
2023-04-02T10:35:00.015Z,91.6
2023-04-02T11:05:19.357Z,90
2023-04-02T11:35:38.711Z,87.1
2023-04-02T12:05:56.434Z,87.7
2023-04-02T12:36:13.298Z,88.30001
2023-04-02T13:06:29.714Z,87.1
2023-04-02T13:36:47.873Z,86.4
2023-04-02T14:07:06.410Z,86.4
2023-04-02T14:37:25.954Z,86.1
2023-04-02T15:07:43.442Z,86.1
2023-04-02T15:37:59.419Z,88.7
2023-04-02T16:08:15.890Z,87.40001
2023-04-02T16:38:33.211Z,86.7
2023-04-02T17:08:51.171Z,83.9
2023-04-02T17:39:10.044Z,82.9
2023-04-02T18:09:27.273Z,82.3
2023-04-02T19:10:03.700Z,81.6
2023-04-02T19:40:20.389Z,81.90001
2023-04-02T20:10:37.996Z,81.90001
2023-04-02T20:40:55.493Z,80.30001
2023-04-02T21:11:13.108Z,80.6
2023-04-02T21:41:28.789Z,81.90001
2023-04-02T22:11:46.779Z,82.6
2023-04-02T22:42:03.288Z,82.3
2023-04-02T23:12:20.237Z,83.1
2023-04-02T23:42:43.712Z,81.90001
